createdAt,value
2019-06-27T00:00:51.515Z,87.92
2019-06-27T00:01:51.521Z,87.92
2019-06-27T00:02:51.539Z,88.39
2019-06-27T00:03:51.561Z,88.30
2019-06-27T00:04:51.578Z,88.68
2019-06-27T00:05:51.586Z,88.87
2019-06-27T00:06:51.606Z,88.97
2019-06-27T00:07:51.618Z,88.87
2019-06-27T00:08:51.643Z,89.16
2019-06-27T00:09:51.663Z,88.68
2019-06-27T00:10:51.674Z,88.87
2019-06-27T00:11:51.679Z,89.07
2019-06-27T00:12:51.698Z,89.16
2019-06-27T00:15:51.750Z,88.78
2019-06-27T00:16:51.817Z,89.36
2019-06-27T00:17:51.780Z,89.16
2019-06-27T00:18:51.795Z,88.87
2019-06-27T00:19:51.812Z,89.74
2019-06-27T00:20:51.829Z,89.36
2019-06-27T00:21:51.853Z,89.74
2019-06-27T00:22:51.856Z,89.45
2019-06-27T00:23:52.399Z,89.74
2019-06-27T00:24:52.024Z,89.36
2019-06-27T00:25:52.333Z,88.68
2019-06-27T00:26:56.951Z,88.10
2019-06-27T00:27:51.944Z,88.10
2019-06-27T00:28:51.960Z,88.73
2019-06-27T00:29:51.971Z,88.06
2019-06-27T00:30:52.015Z,87.82
2019-06-27T00:31:52.004Z,87.34
2019-06-27T00:32:52.018Z,87.34
2019-06-27T00:33:52.045Z,87.92
2019-06-27T00:34:52.066Z,87.92
2019-06-27T00:35:52.077Z,87.34
2019-06-27T00:36:52.083Z,87.62
2019-06-27T00:37:52.113Z,87.82
2019-06-27T00:38:52.116Z,87.62
2019-06-27T00:39:52.135Z,87.62
2019-06-27T00:40:52.214Z,87.43
2019-06-27T00:41:52.183Z,87.34
2019-06-27T00:42:52.182Z,87.62
2019-06-27T00:43:52.197Z,87.62
2019-06-27T00:44:52.213Z,87.24
2019-06-27T00:45:52.230Z,87.24
2019-06-27T00:46:52.249Z,87.53
2019-06-27T00:47:52.266Z,87.34
2019-06-27T00:48:52.276Z,87.15
2019-06-27T00:49:52.303Z,87.24
2019-06-27T00:50:52.315Z,86.57
2019-06-27T00:51:52.334Z,87.43
2019-06-27T00:52:52.343Z,88.01
2019-06-27T00:53:52.367Z,87.72
2019-06-27T00:54:52.373Z,87.15
2019-06-27T00:55:52.388Z,86.52
2019-06-27T00:56:52.411Z,86.76
2019-06-27T00:57:52.431Z,86.66
2019-06-27T00:58:52.454Z,87.05
2019-06-27T00:59:52.459Z,87.87
2019-06-27T01:00:52.476Z,87.96
2019-06-27T01:01:52.500Z,87.77
2019-06-27T01:02:52.504Z,88.73
2019-06-27T01:03:52.538Z,88.54
2019-06-27T01:04:52.535Z,88.54
2019-06-27T01:05:52.556Z,87.87
2019-06-27T01:06:52.570Z,87.58
2019-06-27T01:07:52.578Z,87.29
2019-06-27T01:08:52.598Z,87.39
2019-06-27T01:09:52.612Z,87.87
2019-06-27T01:10:52.630Z,87.39
2019-06-27T01:11:52.650Z,87.19
2019-06-27T01:12:52.666Z,88.06
2019-06-27T01:13:52.680Z,87.77
2019-06-27T01:14:52.697Z,87.24
2019-06-27T01:15:52.707Z,87.15
2019-06-27T01:16:52.747Z,87.24
2019-06-27T01:17:52.742Z,86.85
2019-06-27T01:18:52.763Z,86.85
2019-06-27T01:19:52.771Z,87.49
2019-06-27T01:20:52.795Z,87.39
2019-06-27T01:21:52.803Z,87.29
2019-06-27T01:22:52.822Z,87.68
2019-06-27T01:23:52.835Z,86.72
2019-06-27T01:24:52.853Z,87.15
2019-06-27T01:25:52.880Z,87.34
2019-06-27T01:26:52.885Z,86.47
2019-06-27T01:27:52.913Z,86.66
2019-06-27T01:28:52.915Z,86.76
2019-06-27T01:29:52.936Z,86.18
2019-06-27T01:30:52.953Z,86.28
2019-06-27T01:31:52.967Z,86.66
2019-06-27T01:32:53.003Z,86.28
2019-06-27T01:33:53.000Z,86.38
2019-06-27T01:34:53.017Z,86.57
2019-06-27T01:35:53.027Z,86.33
2019-06-27T01:36:53.041Z,86.72
2019-06-27T01:37:53.058Z,86.52
2019-06-27T01:38:53.074Z,87.19
2019-06-27T01:39:53.094Z,87.77
2019-06-27T01:40:53.114Z,87.19
2019-06-27T01:41:53.124Z,87.87
2019-06-27T01:42:53.145Z,87.10
2019-06-27T01:43:53.161Z,86.62
2019-06-27T01:44:53.170Z,86.62
2019-06-27T01:45:53.185Z,87.10
2019-06-27T01:46:53.210Z,86.62
2019-06-27T01:47:53.227Z,86.43
2019-06-27T01:48:53.232Z,86.52
2019-06-27T01:49:53.262Z,86.81
2019-06-27T01:50:53.331Z,86.24
2019-06-27T01:51:53.287Z,86.81
2019-06-27T01:52:53.302Z,87.29
2019-06-27T01:53:53.313Z,87.68
2019-06-27T01:54:53.337Z,87.68
2019-06-27T01:55:53.345Z,87.63
2019-06-27T01:56:53.362Z,87.73
2019-06-27T01:57:53.387Z,88.02
2019-06-27T01:58:53.403Z,88.59
2019-06-27T01:59:53.416Z,88.69
2019-06-27T02:00:53.431Z,88.40
2019-06-27T02:01:53.441Z,88.49
2019-06-27T02:02:53.465Z,88.40
2019-06-27T02:03:53.477Z,88.79
2019-06-27T02:04:53.488Z,88.98
2019-06-27T02:05:53.505Z,88.40
2019-06-27T02:06:53.521Z,88.54
2019-06-27T02:07:53.526Z,87.58
2019-06-27T02:08:53.555Z,87.77
2019-06-27T02:09:53.569Z,87.63
2019-06-27T02:10:53.578Z,87.87
2019-06-27T02:11:53.592Z,87.39
2019-06-27T02:12:53.615Z,87.82
2019-06-27T02:13:53.629Z,88.49
2019-06-27T02:14:53.640Z,88.79
2019-06-27T02:15:53.657Z,88.02
2019-06-27T02:16:53.669Z,88.11
2019-06-27T02:17:53.691Z,88.59
2019-06-27T02:18:53.717Z,88.49
2019-06-27T02:19:53.720Z,88.69
2019-06-27T02:20:53.771Z,87.73
2019-06-27T02:21:53.764Z,87.82
2019-06-27T02:22:53.774Z,87.96
2019-06-27T02:23:53.790Z,87.87
2019-06-27T02:24:53.806Z,87.25
2019-06-27T02:25:53.815Z,87.44
2019-06-27T02:26:53.848Z,87.92
2019-06-27T02:28:03.978Z,87.44
2019-06-27T02:28:53.861Z,87.73
2019-06-27T02:29:53.890Z,87.96
2019-06-27T02:30:53.900Z,88.06
2019-06-27T02:31:53.908Z,87.87
2019-06-27T02:32:53.935Z,88.06
2019-06-27T02:33:53.945Z,87.10
2019-06-27T02:34:53.966Z,87.39
2019-06-27T02:35:53.971Z,87.39
2019-06-27T02:36:53.989Z,87.68
2019-06-27T02:37:54.005Z,87.96
2019-06-27T02:38:54.038Z,87.29
2019-06-27T02:39:54.042Z,86.62
2019-06-27T02:40:58.266Z,87.49
2019-06-27T02:41:54.120Z,87.29
2019-06-27T02:42:54.086Z,87.10
2019-06-27T02:43:54.101Z,87.29
2019-06-27T02:44:54.124Z,87.49
2019-06-27T02:45:54.139Z,87.10
2019-06-27T02:46:54.146Z,87.87
2019-06-27T02:47:54.172Z,87.39
2019-06-27T02:48:54.185Z,87.77
2019-06-27T02:49:54.194Z,87.87
2019-06-27T02:50:54.425Z,87.96
2019-06-27T02:51:54.247Z,87.19
2019-06-27T02:52:54.260Z,86.52
2019-06-27T02:53:54.259Z,87.01
2019-06-27T02:54:54.276Z,87.05
2019-06-27T02:55:54.304Z,87.58
2019-06-27T02:56:54.304Z,86.96
2019-06-27T02:57:54.325Z,87.19
2019-06-27T02:58:54.344Z,86.72
2019-06-27T02:59:54.349Z,87.10
2019-06-27T03:00:54.369Z,87.25
2019-06-27T03:01:54.402Z,86.77
2019-06-27T03:02:54.405Z,87.29
2019-06-27T03:03:54.421Z,87.25
2019-06-27T03:04:54.430Z,87.39
2019-06-27T03:05:54.467Z,87.29
2019-06-27T03:06:54.462Z,86.48
2019-06-27T03:07:54.478Z,87.10
2019-06-27T03:08:54.498Z,87.10
2019-06-27T03:09:54.517Z,87.19
2019-06-27T03:10:54.533Z,87.49
2019-06-27T03:11:59.334Z,87.10
2019-06-27T03:12:54.560Z,86.72
2019-06-27T03:13:54.578Z,86.52
2019-06-27T03:14:54.589Z,86.62
2019-06-27T03:15:54.603Z,86.52
2019-06-27T03:16:54.640Z,86.96
2019-06-27T03:17:54.648Z,87.10
2019-06-27T03:18:54.669Z,86.33
2019-06-27T03:19:54.675Z,86.33
2019-06-27T03:20:54.706Z,86.52
2019-06-27T03:21:54.706Z,86.77
2019-06-27T03:22:54.755Z,86.58
2019-06-27T03:23:54.746Z,86.68
2019-06-27T03:25:54.825Z,87.39
2019-06-27T03:26:54.781Z,86.52
2019-06-27T03:27:54.807Z,86.62
2019-06-27T03:28:54.854Z,86.43
2019-06-27T03:29:54.833Z,86.52
2019-06-27T03:30:54.896Z,86.72
2019-06-27T03:31:54.858Z,87.29
2019-06-27T03:32:54.879Z,87.29
2019-06-27T03:33:54.893Z,86.62
2019-06-27T03:34:54.907Z,86.33
2019-06-27T03:35:54.929Z,86.33
2019-06-27T03:36:54.935Z,86.52
2019-06-27T03:37:54.959Z,86.24
2019-06-27T03:38:55.001Z,86.43
2019-06-27T03:39:54.996Z,85.75
2019-06-27T03:40:55.001Z,85.57
2019-06-27T03:41:55.023Z,85.71
2019-06-27T03:42:55.036Z,85.71
2019-06-27T03:43:55.043Z,86.38
2019-06-27T03:44:55.063Z,86.68
2019-06-27T03:45:55.079Z,86.58
2019-06-27T03:46:55.308Z,86.38
2019-06-27T03:47:55.123Z,86.38
2019-06-27T03:48:55.137Z,86.77
2019-06-27T03:49:55.155Z,86.00
2019-06-27T03:50:56.427Z,85.52
2019-06-27T03:51:55.170Z,86.19
2019-06-27T03:52:55.192Z,85.91
2019-06-27T03:53:55.210Z,85.42
2019-06-27T03:54:55.226Z,86.68
2019-06-27T03:55:55.241Z,86.29
2019-06-27T03:56:55.257Z,86.05
2019-06-27T03:57:55.302Z,86.05
2019-06-27T03:59:11.345Z,85.14
2019-06-27T03:59:55.295Z,85.81
2019-06-27T04:00:55.313Z,86.19
2019-06-27T04:01:55.333Z,86.00
2019-06-27T04:02:55.350Z,86.96
2019-06-27T04:03:55.364Z,86.48
2019-06-27T04:04:55.392Z,86.10
2019-06-27T04:05:55.403Z,86.48
2019-06-27T04:06:55.414Z,87.15
2019-06-27T04:07:55.436Z,86.29
2019-06-27T04:08:55.447Z,86.68
2019-06-27T04:09:55.459Z,86.48
2019-06-27T04:10:55.472Z,86.00
2019-06-27T04:11:55.515Z,86.19
2019-06-27T04:12:55.504Z,86.29
2019-06-27T04:13:55.522Z,86.77
2019-06-27T04:14:55.531Z,86.19
2019-06-27T04:15:55.558Z,86.29
2019-06-27T04:16:55.572Z,86.10
2019-06-27T04:17:55.579Z,86.68
2019-06-27T04:18:55.607Z,86.58
2019-06-27T04:19:55.628Z,86.58
2019-06-27T04:20:55.628Z,86.19
2019-06-27T04:21:55.660Z,86.19
2019-06-27T04:22:55.673Z,86.58
2019-06-27T04:23:55.714Z,85.71
2019-06-27T04:24:55.691Z,85.91
2019-06-27T04:25:55.715Z,86.68
2019-06-27T04:26:55.722Z,86.48
2019-06-27T04:27:59.597Z,86.58
2019-06-27T04:28:55.779Z,86.48
2019-06-27T04:29:55.785Z,86.29
2019-06-27T04:30:55.828Z,86.38
2019-06-27T04:31:55.963Z,86.19
2019-06-27T04:32:55.867Z,85.86
2019-06-27T04:33:55.832Z,86.15
2019-06-27T04:34:55.847Z,85.28
2019-06-27T04:35:55.869Z,86.15
2019-06-27T04:36:55.892Z,85.86
2019-06-27T04:37:56.048Z,85.38
2019-06-27T04:38:56.139Z,85.28
2019-06-27T04:39:55.952Z,85.00
2019-06-27T04:40:56.054Z,85.28
2019-06-27T04:42:55.989Z,85.14
2019-06-27T04:43:56.177Z,85.04
2019-06-27T04:44:56.003Z,84.56
2019-06-27T04:45:56.029Z,84.42
2019-06-27T04:46:56.036Z,85.19
2019-06-27T04:47:56.063Z,85.42
2019-06-27T04:48:56.070Z,84.95
2019-06-27T04:49:56.097Z,85.52
2019-06-27T04:50:56.103Z,83.80
2019-06-27T04:51:56.122Z,84.75
2019-06-27T04:52:56.133Z,84.37
2019-06-27T04:53:57.349Z,84.47
2019-06-27T04:54:56.265Z,84.56
2019-06-27T04:55:57.586Z,84.18
2019-06-27T04:56:57.120Z,84.47
2019-06-27T04:57:56.234Z,84.66
2019-06-27T04:58:56.279Z,83.98
2019-06-27T04:59:56.295Z,84.42
2019-06-27T05:00:56.271Z,85.00
2019-06-27T05:01:56.283Z,84.23
2019-06-27T05:02:56.287Z,83.94
2019-06-27T05:03:56.318Z,84.52
2019-06-27T05:04:56.323Z,83.85
2019-06-27T05:05:56.345Z,84.04
2019-06-27T05:06:56.361Z,83.65
2019-06-27T05:07:56.363Z,83.65
2019-06-27T05:08:56.454Z,84.61
2019-06-27T05:09:56.410Z,83.65
2019-06-27T05:10:56.437Z,82.21
2019-06-27T05:11:56.439Z,82.89
2019-06-27T05:12:56.452Z,83.08
2019-06-27T05:13:56.486Z,82.85
2019-06-27T05:14:56.488Z,82.94
2019-06-27T05:15:56.603Z,82.85
2019-06-27T05:16:56.533Z,84.04
2019-06-27T05:17:56.544Z,83.18
2019-06-27T05:18:56.548Z,83.08
2019-06-27T05:19:56.585Z,82.98
2019-06-27T05:20:56.580Z,82.65
2019-06-27T05:21:56.590Z,82.18
2019-06-27T05:22:56.601Z,82.75
2019-06-27T05:23:56.617Z,83.27
2019-06-27T05:24:56.640Z,82.98
2019-06-27T05:25:56.663Z,82.46
2019-06-27T05:26:56.699Z,82.79
2019-06-27T05:27:56.682Z,83.08
2019-06-27T05:30:08.605Z,82.70
2019-06-27T05:30:56.774Z,82.12
2019-06-27T05:31:56.810Z,82.51
2019-06-27T05:32:56.802Z,82.12
2019-06-27T05:33:56.775Z,82.12
2019-06-27T05:34:56.789Z,81.74
2019-06-27T05:36:56.830Z,81.26
2019-06-27T05:37:56.862Z,81.16
2019-06-27T05:38:56.880Z,80.87
2019-06-27T05:39:56.876Z,82.21
2019-06-27T05:40:56.887Z,82.31
2019-06-27T05:41:56.924Z,82.41
2019-06-27T05:42:56.919Z,82.31
2019-06-27T05:43:56.931Z,81.74
2019-06-27T05:44:56.948Z,82.03
2019-06-27T05:45:56.967Z,82.12
2019-06-27T05:46:56.985Z,81.74
2019-06-27T05:47:56.995Z,81.54
2019-06-27T05:48:57.024Z,82.51
2019-06-27T05:49:57.067Z,81.74
2019-06-27T05:50:57.050Z,82.31
2019-06-27T05:51:57.148Z,82.89
2019-06-27T05:52:57.792Z,81.64
2019-06-27T05:53:57.103Z,82.41
2019-06-27T05:54:57.157Z,81.84
2019-06-27T05:55:57.885Z,81.45
2019-06-27T05:56:57.158Z,82.12
2019-06-27T05:57:57.158Z,81.79
2019-06-27T05:58:57.718Z,82.37
2019-06-27T05:59:57.352Z,82.65
2019-06-27T06:00:57.222Z,82.75
2019-06-27T06:01:57.222Z,82.52
2019-06-27T06:02:57.225Z,82.75
2019-06-27T06:03:57.242Z,83.91
2019-06-27T06:04:57.262Z,82.90
2019-06-27T06:05:57.280Z,83.19
2019-06-27T06:06:57.297Z,84.19
2019-06-27T06:07:57.309Z,83.91
2019-06-27T06:08:57.319Z,83.48
2019-06-27T06:09:57.337Z,83.19
2019-06-27T06:10:57.373Z,83.38
2019-06-27T06:11:57.370Z,83.58
2019-06-27T06:12:57.400Z,83.81
2019-06-27T06:13:58.328Z,84.28
2019-06-27T06:14:57.424Z,83.23
2019-06-27T06:16:00.823Z,82.46
2019-06-27T06:16:57.463Z,83.04
2019-06-27T06:17:57.490Z,81.84
2019-06-27T06:18:57.478Z,82.21
2019-06-27T06:19:57.499Z,81.51
2019-06-27T06:20:57.510Z,82.08
2019-06-27T06:21:57.522Z,82.46
2019-06-27T06:22:57.539Z,82.46
2019-06-27T06:23:57.706Z,83.94
2019-06-27T06:25:57.586Z,81.84
2019-06-27T06:26:57.606Z,82.51
2019-06-27T06:27:57.618Z,82.79
2019-06-27T06:28:57.639Z,82.70
2019-06-27T06:29:57.897Z,82.41
2019-06-27T06:30:57.682Z,82.51
2019-06-27T06:31:57.742Z,82.79
2019-06-27T06:32:57.710Z,82.12
2019-06-27T06:33:57.738Z,82.79
2019-06-27T06:34:57.733Z,82.12
2019-06-27T06:35:57.746Z,82.21
2019-06-27T06:36:57.756Z,81.74
2019-06-27T06:38:57.790Z,82.89
2019-06-27T06:39:57.821Z,82.31
2019-06-27T06:40:57.839Z,82.37
2019-06-27T06:41:57.885Z,81.93
2019-06-27T06:43:00.455Z,81.93
2019-06-27T06:43:57.861Z,82.31
2019-06-27T06:44:57.906Z,81.07
2019-06-27T06:45:57.936Z,81.16
2019-06-27T06:46:58.486Z,80.68
2019-06-27T06:47:57.926Z,80.40
2019-06-27T06:48:57.953Z,79.91
2019-06-27T06:49:57.970Z,80.20
2019-06-27T06:50:57.974Z,79.63
2019-06-27T06:51:58.063Z,78.23
2019-06-27T06:52:58.004Z,78.32
2019-06-27T06:53:58.267Z,77.84
2019-06-27T06:54:58.269Z,78.32
2019-06-27T06:55:58.057Z,78.23
2019-06-27T06:56:58.062Z,78.00
2019-06-27T06:57:58.081Z,78.90
2019-06-27T06:58:58.093Z,79.47
2019-06-27T06:59:58.118Z,78.86
2019-06-27T07:01:01.841Z,78.57
2019-06-27T07:01:58.374Z,79.82
2019-06-27T07:02:58.163Z,80.87
2019-06-27T07:03:58.177Z,80.97
2019-06-27T07:04:58.207Z,80.30
2019-06-27T07:05:58.203Z,78.80
2019-06-27T07:06:58.274Z,78.52
2019-06-27T07:07:58.247Z,77.84
2019-06-27T07:08:58.256Z,77.80
2019-06-27T07:09:58.688Z,78.38
2019-06-27T07:10:58.695Z,78.03
2019-06-27T07:11:59.244Z,78.23
2019-06-27T07:12:58.669Z,77.75
2019-06-27T07:14:00.041Z,77.94
2019-06-27T07:14:58.401Z,78.32
2019-06-27T07:15:58.649Z,77.75
2019-06-27T07:16:58.383Z,78.03
2019-06-27T07:17:58.469Z,77.84
2019-06-27T07:18:58.434Z,77.94
2019-06-27T07:19:58.491Z,77.26
2019-06-27T07:21:58.453Z,78.42
2019-06-27T07:22:59.965Z,78.23
2019-06-27T07:23:58.507Z,76.73
2019-06-27T07:24:59.715Z,75.87
2019-06-27T07:26:00.821Z,75.57
2019-06-27T07:26:58.550Z,77.59
2019-06-27T07:27:59.692Z,80.66
2019-06-27T07:28:58.568Z,76.82
2019-06-27T07:31:58.618Z,78.27
2019-06-27T07:32:58.630Z,77.31
2019-06-27T07:33:58.805Z,75.82
2019-06-27T07:34:58.666Z,76.54
2019-06-27T07:35:58.686Z,76.44
2019-06-27T07:36:58.687Z,76.25
2019-06-27T07:37:58.710Z,76.82
2019-06-27T07:38:58.733Z,77.31
2019-06-27T07:39:58.744Z,77.31
2019-06-27T07:40:58.813Z,76.82
2019-06-27T07:41:58.824Z,75.67
2019-06-27T07:42:58.788Z,75.20
2019-06-27T07:43:58.800Z,75.77
2019-06-27T07:44:58.821Z,76.34
2019-06-27T07:45:58.836Z,75.87
2019-06-27T07:46:58.852Z,77.40
2019-06-27T07:47:58.923Z,76.06
2019-06-27T07:48:58.880Z,75.10
2019-06-27T07:49:58.918Z,76.15
2019-06-27T07:50:58.933Z,75.77
2019-06-27T07:51:58.926Z,76.25
2019-06-27T07:52:58.949Z,76.06
2019-06-27T07:53:58.961Z,75.48
2019-06-27T07:54:58.980Z,75.77
2019-06-27T07:55:58.990Z,74.43
2019-06-27T07:56:59.025Z,75.57
2019-06-27T07:58:00.028Z,74.71
2019-06-27T07:59:00.570Z,74.81
2019-06-27T07:59:59.132Z,73.31
2019-06-27T08:00:59.170Z,73.69
2019-06-27T08:01:59.099Z,72.83
2019-06-27T08:02:59.110Z,73.88
2019-06-27T08:03:59.185Z,73.27
2019-06-27T08:04:59.138Z,72.79
2019-06-27T08:05:59.291Z,73.37
2019-06-27T08:06:59.158Z,73.66
2019-06-27T08:07:59.179Z,73.37
2019-06-27T08:08:59.193Z,73.88
2019-06-27T08:09:59.214Z,74.23
2019-06-27T08:10:59.220Z,73.85
2019-06-27T08:11:59.248Z,74.71
2019-06-27T08:12:59.253Z,73.85
2019-06-27T08:13:59.282Z,74.10
2019-06-27T08:14:59.283Z,74.77
2019-06-27T08:15:59.300Z,74.90
2019-06-27T08:16:59.318Z,74.33
2019-06-27T08:17:59.339Z,73.85
2019-06-27T08:18:59.367Z,73.94
2019-06-27T08:19:59.389Z,73.11
2019-06-27T08:20:59.385Z,72.64
2019-06-27T08:21:59.403Z,72.73
2019-06-27T08:22:59.412Z,72.34
2019-06-27T08:23:59.443Z,71.96
2019-06-27T08:24:59.441Z,72.64
2019-06-27T08:25:59.660Z,71.19
2019-06-27T08:26:59.512Z,72.44
2019-06-27T08:27:59.492Z,73.11
2019-06-27T08:28:59.506Z,72.92
2019-06-27T08:30:03.224Z,72.92
2019-06-27T08:30:59.544Z,73.41
2019-06-27T08:31:59.566Z,73.41
2019-06-27T08:32:59.574Z,73.31
2019-06-27T08:33:59.583Z,73.02
2019-06-27T08:34:59.609Z,72.48
2019-06-27T08:35:59.629Z,73.15
2019-06-27T08:36:59.628Z,72.96
2019-06-27T08:37:59.755Z,72.67
2019-06-27T08:38:59.666Z,70.84
2019-06-27T08:40:59.724Z,71.71
2019-06-27T08:41:59.758Z,70.94
2019-06-27T08:42:59.728Z,69.50
2019-06-27T08:43:59.748Z,68.44
2019-06-27T08:44:59.763Z,68.44
2019-06-27T08:45:59.787Z,69.02
2019-06-27T08:46:59.790Z,69.50
2019-06-27T08:47:59.844Z,69.60
2019-06-27T08:48:59.824Z,68.57
2019-06-27T08:50:00.945Z,67.71
2019-06-27T08:50:59.860Z,67.90
2019-06-27T08:51:59.867Z,67.90
2019-06-27T08:53:01.449Z,68.96
2019-06-27T08:53:59.930Z,69.06
2019-06-27T08:55:00.107Z,67.71
2019-06-27T08:55:59.989Z,67.99
2019-06-27T08:56:59.952Z,67.42
2019-06-27T08:57:59.998Z,67.80
2019-06-27T08:58:59.993Z,68.76
2019-06-27T09:00:00.013Z,67.99
2019-06-27T09:01:00.055Z,69.34
2019-06-27T09:02:08.722Z,68.48
2019-06-27T09:03:00.076Z,68.76
2019-06-27T09:04:00.075Z,68.60
2019-06-27T09:05:00.096Z,69.38
2019-06-27T09:06:00.125Z,69.76
2019-06-27T09:07:00.327Z,69.47
2019-06-27T09:08:00.142Z,68.70
2019-06-27T09:09:00.159Z,69.18
2019-06-27T09:10:00.187Z,69.63
2019-06-27T09:11:00.168Z,68.99
2019-06-27T09:12:00.189Z,69.95
2019-06-27T09:13:00.221Z,69.57
2019-06-27T09:14:00.232Z,69.28
2019-06-27T09:15:00.243Z,67.26
2019-06-27T09:16:00.272Z,68.16
2019-06-27T09:17:00.274Z,68.26
2019-06-27T09:18:00.290Z,66.33
2019-06-27T09:19:00.303Z,65.56
2019-06-27T09:20:00.624Z,65.75
2019-06-27T09:21:00.914Z,65.72
2019-06-27T09:22:00.689Z,66.01
2019-06-27T09:23:00.572Z,66.39
2019-06-27T09:24:00.848Z,67.29
2019-06-27T09:26:00.414Z,65.94
2019-06-27T09:27:00.483Z,67.10
2019-06-27T09:28:00.455Z,66.42
2019-06-27T09:29:00.459Z,65.66
2019-06-27T09:30:00.474Z,64.69
2019-06-27T09:31:00.490Z,64.92
2019-06-27T09:32:00.532Z,64.53
2019-06-27T09:33:00.523Z,63.76
2019-06-27T09:34:00.548Z,64.40
2019-06-27T09:35:00.594Z,64.40
2019-06-27T09:36:00.576Z,64.69
2019-06-27T09:37:00.590Z,64.98
2019-06-27T09:38:00.633Z,64.89
2019-06-27T09:39:00.781Z,65.27
2019-06-27T09:40:00.948Z,64.50
2019-06-27T09:41:00.668Z,64.69
2019-06-27T09:42:00.682Z,65.46
2019-06-27T09:43:00.695Z,66.49
2019-06-27T09:44:00.706Z,66.39
2019-06-27T09:45:00.734Z,66.62
2019-06-27T09:46:00.781Z,65.56
2019-06-27T09:47:00.803Z,65.46
2019-06-27T09:48:00.767Z,65.20
2019-06-27T09:49:00.833Z,65.05
2019-06-27T09:50:01.327Z,64.66
2019-06-27T09:51:00.809Z,64.86
2019-06-27T09:52:00.835Z,63.79
2019-06-27T09:53:00.865Z,63.79
2019-06-27T09:54:00.865Z,63.79
2019-06-27T09:55:00.901Z,63.50
2019-06-27T09:56:01.120Z,63.98
2019-06-27T09:57:00.959Z,63.41
2019-06-27T09:58:00.937Z,63.31
2019-06-27T10:00:00.978Z,63.82
2019-06-27T10:01:00.971Z,63.24
2019-06-27T10:02:00.986Z,62.09
2019-06-27T10:03:01.005Z,61.99
2019-06-27T10:04:01.023Z,62.66
2019-06-27T10:05:01.038Z,62.28
2019-06-27T10:06:01.317Z,62.18
2019-06-27T10:07:01.093Z,61.03
2019-06-27T10:08:01.116Z,61.71
2019-06-27T10:09:01.109Z,62.18
2019-06-27T10:10:01.185Z,61.41
2019-06-27T10:11:01.159Z,62.25
2019-06-27T10:12:01.151Z,62.54
2019-06-27T10:13:01.180Z,62.93
2019-06-27T10:14:01.294Z,62.57
2019-06-27T10:15:01.211Z,61.80
2019-06-27T10:16:01.229Z,61.41
2019-06-27T10:17:01.240Z,61.51
2019-06-27T10:18:01.397Z,60.64
2019-06-27T10:19:01.281Z,61.51
2019-06-27T10:20:01.283Z,61.71
2019-06-27T10:21:01.303Z,61.99
2019-06-27T10:22:01.355Z,60.45
2019-06-27T10:23:01.783Z,61.25
2019-06-27T10:24:01.354Z,59.32
2019-06-27T10:25:01.367Z,59.61
2019-06-27T10:26:01.386Z,60.86
2019-06-27T10:27:01.395Z,60.68
2019-06-27T10:28:03.231Z,59.71
2019-06-27T10:29:02.860Z,59.23
2019-06-27T10:30:01.449Z,60.03
2019-06-27T10:31:01.466Z,60.03
2019-06-27T10:32:01.722Z,59.23
2019-06-27T10:33:01.494Z,58.97
2019-06-27T10:34:01.587Z,59.80
2019-06-27T10:35:05.558Z,59.03
2019-06-27T10:36:04.673Z,59.03
2019-06-27T10:37:01.582Z,60.51
2019-06-27T10:38:01.579Z,60.31
2019-06-27T10:39:01.636Z,59.55
2019-06-27T10:40:01.644Z,58.97
2019-06-27T10:41:01.632Z,59.74
2019-06-27T10:42:01.648Z,59.64
2019-06-27T10:43:01.672Z,59.45
2019-06-27T10:44:01.679Z,59.67
2019-06-27T10:45:02.102Z,59.96
2019-06-27T10:46:01.712Z,58.70
2019-06-27T10:47:01.788Z,59.00
2019-06-27T10:48:01.744Z,58.61
2019-06-27T10:49:01.767Z,58.22
2019-06-27T10:50:01.777Z,58.80
2019-06-27T10:51:01.808Z,58.32
2019-06-27T10:52:01.824Z,58.32
2019-06-27T10:53:01.849Z,59.28
2019-06-27T10:54:01.934Z,58.80
2019-06-27T10:55:01.879Z,59.48
2019-06-27T10:56:01.893Z,58.12
2019-06-27T10:57:01.911Z,57.84
2019-06-27T10:58:01.923Z,58.32
2019-06-27T10:59:01.988Z,58.61
2019-06-27T11:00:02.186Z,59.58
2019-06-27T11:02:02.096Z,59.31
2019-06-27T11:03:14.824Z,58.93
2019-06-27T11:04:02.159Z,59.22
2019-06-27T11:05:02.076Z,60.47
2019-06-27T11:06:02.057Z,59.41
2019-06-27T11:07:02.083Z,58.54
2019-06-27T11:08:02.089Z,59.12
2019-06-27T11:09:03.369Z,58.93
2019-06-27T11:10:05.048Z,58.54
2019-06-27T11:11:02.166Z,59.31
2019-06-27T11:12:02.778Z,59.02
2019-06-27T11:14:02.193Z,59.51
2019-06-27T11:15:02.271Z,58.18
2019-06-27T11:16:02.246Z,58.57
2019-06-27T11:17:02.404Z,58.60
2019-06-27T11:18:02.785Z,58.86
2019-06-27T11:19:02.277Z,59.18
2019-06-27T11:20:02.305Z,59.38
2019-06-27T11:21:02.302Z,57.54
2019-06-27T11:22:02.373Z,58.70
2019-06-27T11:23:02.342Z,56.86
2019-06-27T11:24:02.358Z,56.09
2019-06-27T11:25:02.424Z,56.95
2019-06-27T11:26:02.436Z,57.44
2019-06-27T11:27:02.626Z,57.54
2019-06-27T11:28:02.528Z,57.15
2019-06-27T11:29:02.612Z,57.41
2019-06-27T11:30:02.492Z,57.60
2019-06-27T11:31:02.476Z,57.79
2019-06-27T11:32:02.519Z,58.86
2019-06-27T11:33:02.513Z,59.73
2019-06-27T11:34:02.527Z,60.41
2019-06-27T11:35:02.615Z,60.44
2019-06-27T11:36:02.576Z,61.02
2019-06-27T11:37:02.621Z,60.17
2019-06-27T11:38:02.592Z,58.63
2019-06-27T11:39:02.720Z,56.79
2019-06-27T11:40:02.634Z,57.66
2019-06-27T11:41:02.679Z,57.56
2019-06-27T11:42:02.685Z,56.88
2019-06-27T11:43:04.390Z,56.88
2019-06-27T11:44:02.985Z,57.76
2019-06-27T11:45:02.753Z,57.18
2019-06-27T11:46:02.731Z,56.30
2019-06-27T11:47:02.781Z,57.18
2019-06-27T11:48:02.826Z,57.08
2019-06-27T11:49:02.810Z,57.28
2019-06-27T11:50:02.813Z,56.92
2019-06-27T11:51:03.076Z,57.40
2019-06-27T11:52:02.881Z,56.92
2019-06-27T11:54:04.175Z,57.88
2019-06-27T11:55:02.903Z,56.34
2019-06-27T11:56:02.907Z,56.14
2019-06-27T11:57:02.924Z,55.85
2019-06-27T11:58:02.971Z,57.53
2019-06-27T11:59:03.112Z,58.30
2019-06-27T12:00:03.100Z,55.40
2019-06-27T12:02:03.187Z,56.14
2019-06-27T12:04:03.587Z,56.07
2019-06-27T12:05:03.630Z,55.94
2019-06-27T12:06:03.134Z,56.24
2019-06-27T12:07:03.407Z,56.14
2019-06-27T12:08:03.142Z,57.33
2019-06-27T12:09:03.151Z,56.94
2019-06-27T12:10:04.257Z,57.14
2019-06-27T12:11:03.262Z,56.36
2019-06-27T12:12:04.058Z,55.07
2019-06-27T12:13:03.267Z,55.78
2019-06-27T12:14:03.245Z,55.22
2019-06-27T12:15:03.366Z,54.26
2019-06-27T12:17:03.385Z,53.70
2019-06-27T12:18:03.320Z,53.99
2019-06-27T12:19:03.352Z,52.51
2019-06-27T12:20:03.355Z,53.29
2019-06-27T12:21:05.900Z,54.35
2019-06-27T12:22:03.420Z,53.19
2019-06-27T12:23:03.395Z,53.41
2019-06-27T12:24:03.516Z,56.90
2019-06-27T12:25:03.662Z,54.70
2019-06-27T12:26:03.546Z,54.50
2019-06-27T12:27:03.472Z,54.41
2019-06-27T12:28:03.497Z,53.73
2019-06-27T12:29:03.540Z,52.08
2019-06-27T12:30:03.683Z,52.90
2019-06-27T12:31:19.261Z,53.51
2019-06-27T12:32:03.554Z,55.26
2019-06-27T12:33:03.642Z,53.12
2019-06-27T12:34:07.264Z,53.12
2019-06-27T12:35:05.032Z,54.64
2019-06-27T12:37:03.791Z,52.83
2019-06-27T12:38:03.912Z,54.50
2019-06-27T12:39:03.803Z,53.73
2019-06-27T12:40:03.723Z,55.18
2019-06-27T12:41:03.783Z,51.79
2019-06-27T12:42:03.756Z,53.75
2019-06-27T12:43:04.071Z,51.72
2019-06-27T12:44:03.854Z,51.53
2019-06-27T12:45:03.826Z,52.88
2019-06-27T12:46:03.924Z,52.88
2019-06-27T12:47:03.874Z,52.40
2019-06-27T12:48:07.297Z,53.78
2019-06-27T12:49:04.244Z,52.23
2019-06-27T12:50:03.930Z,52.91
2019-06-27T12:51:03.975Z,51.09
2019-06-27T12:52:04.045Z,51.09
2019-06-27T12:53:04.017Z,50.31
2019-06-27T12:54:04.022Z,51.16
2019-06-27T12:55:04.050Z,51.06
2019-06-27T12:57:04.098Z,51.26
2019-06-27T12:58:04.237Z,50.02
2019-06-27T12:59:04.161Z,51.99
2019-06-27T13:00:08.237Z,49.58
2019-06-27T13:02:04.378Z,47.78
2019-06-27T13:03:05.350Z,47.34
2019-06-27T13:04:04.326Z,46.27
2019-06-27T13:05:04.317Z,45.59
2019-06-27T13:06:04.347Z,44.83
2019-06-27T13:07:04.373Z,45.46
2019-06-27T13:08:04.505Z,43.80
2019-06-27T13:09:04.412Z,44.93
2019-06-27T13:10:04.449Z,45.81
2019-06-27T13:11:04.501Z,45.05
2019-06-27T13:12:04.483Z,46.44
2019-06-27T13:13:04.511Z,45.29
2019-06-27T13:14:04.584Z,42.75
2019-06-27T13:15:04.595Z,43.92
2019-06-27T13:16:04.674Z,45.19